Port Edwards, Wisconsin
Current Conditions -  °F | °C
As of 1:54 PM on Saturday 25 Oct 2014 (Local Time) from KISW Reporting Station
Clear Clear  
Wind Chill: 63°   Ceiling: Unl
Heat Index: 63°   Visibility: 10mi
Dew Point: 29°   Wind: 20mph
Humidity: 28%   Direction: 290°WNW
Pressure: 29.93"   Gusts: 25mph
Location:  44.35°N, 89.87°W
Report Text: KISW 251854Z AUTO 29017G22KT 10SM CLR 17/M02 A2993 RMK AO2 PK WND 29029/1755 SLP134 T01721017
Loading
Personal Weather Stations






























Interactive Weather Map
Tropical Storm Tracking
New forecast layout! Learn more

10-Day Weather Forecast

Advertisements
Track Severe Weather on mobile